sensor_id;sensor_type;location;lat;lon;timestamp;pressure;altitude;pressure_sealevel;temperature;humidity
56713;BME280;42589;45.536;9.032;2023-03-01T00:01:05;100100.78;;;11.98;42.06
56713;BME280;42589;45.536;9.032;2023-03-01T00:04:07;100097.13;;;11.81;41.96
56713;BME280;42589;45.536;9.032;2023-03-01T00:07:07;100108.34;;;12.54;41.44
56713;BME280;42589;45.536;9.032;2023-03-01T00:10:09;100085.97;;;12.73;40.94
56713;BME280;42589;45.536;9.032;2023-03-01T00:13:10;100101.16;;;12.47;41.36
56713;BME280;42589;45.536;9.032;2023-03-01T00:16:17;100066.59;;;12.63;41.17
56713;BME280;42589;45.536;9.032;2023-03-01T00:19:20;100090.34;;;12.83;40.60
56713;BME280;42589;45.536;9.032;2023-03-01T00:22:22;100082.69;;;12.53;41.05
56713;BME280;42589;45.536;9.032;2023-03-01T00:25:23;100061.59;;;12.68;41.31
56713;BME280;42589;45.536;9.032;2023-03-01T00:28:24;100092.66;;;12.43;41.33
56713;BME280;42589;45.536;9.032;2023-03-01T00:31:28;100089.19;;;12.85;41.32
56713;BME280;42589;45.536;9.032;2023-03-01T00:34:29;100079.16;;;12.19;42.52
56713;BME280;42589;45.536;9.032;2023-03-01T00:37:30;100081.19;;;12.25;41.69
56713;BME280;42589;45.536;9.032;2023-03-01T00:40:33;100072.50;;;12.49;41.36
56713;BME280;42589;45.536;9.032;2023-03-01T00:43:38;100080.06;;;12.62;41.29
56713;BME280;42589;45.536;9.032;2023-03-01T00:46:45;100059.13;;;12.15;41.34
56713;BME280;42589;45.536;9.032;2023-03-01T00:49:46;100077.88;;;12.57;41.24
56713;BME280;42589;45.536;9.032;2023-03-01T00:52:50;100077.31;;;12.45;41.05
56713;BME280;42589;45.536;9.032;2023-03-01T00:55:52;100078.84;;;12.82;40.68
56713;BME280;42589;45.536;9.032;2023-03-01T00:58:53;100047.16;;;12.45;40.88
56713;BME280;42589;45.536;9.032;2023-03-01T01:01:54;100041.75;;;12.37;41.40
56713;BME280;42589;45.536;9.032;2023-03-01T01:04:55;100040.66;;;12.82;41.46
56713;BME280;42589;45.536;9.032;2023-03-01T01:07:56;100039.59;;;12.66;40.74
56713;BME280;42589;45.536;9.032;2023-03-01T01:10:57;100038.00;;;12.90;40.42
56713;BME280;42589;45.536;9.032;2023-03-01T01:13:59;100044.63;;;12.77;40.54
56713;BME280;42589;45.536;9.032;2023-03-01T01:17:00;100028.44;;;12.71;40.73
56713;BME280;42589;45.536;9.032;2023-03-01T01:20:01;100038.63;;;12.75;40.69
56713;BME280;42589;45.536;9.032;2023-03-01T01:23:05;100032.66;;;12.90;40.60
56713;BME280;42589;45.536;9.032;2023-03-01T01:26:09;100026.31;;;12.83;40.71
56713;BME280;42589;45.536;9.032;2023-03-01T01:29:11;99976.22;;;12.60;39.85
56713;BME280;42589;45.536;9.032;2023-03-01T01:32:12;100012.63;;;12.77;40.88
56713;BME280;42589;45.536;9.032;2023-03-01T01:35:15;100011.56;;;12.62;40.61
56713;BME280;42589;45.536;9.032;2023-03-01T01:38:17;100000.13;;;12.78;40.28
56713;BME280;42589;45.536;9.032;2023-03-01T01:41:18;100001.75;;;12.63;40.48
56713;BME280;42589;45.536;9.032;2023-03-01T01:44:26;99989.72;;;12.59;40.91
56713;BME280;42589;45.536;9.032;2023-03-01T01:47:27;99966.00;;;12.47;41.00
56713;BME280;42589;45.536;9.032;2023-03-01T01:50:29;99991.72;;;12.65;40.38
56713;BME280;42589;45.536;9.032;2023-03-01T01:53:38;99978.34;;;12.48;40.55
56713;BME280;42589;45.536;9.032;2023-03-01T01:56:42;99987.56;;;12.62;41.34
56713;BME280;42589;45.536;9.032;2023-03-01T01:59:50;99949.16;;;12.39;40.85
56713;BME280;42589;45.536;9.032;2023-03-01T02:03:00;99971.31;;;12.39;41.33
56713;BME280;42589;45.536;9.032;2023-03-01T02:06:37;99988.66;;;12.94;41.20
56713;BME280;42589;45.536;9.032;2023-03-01T02:09:42;99981.56;;;12.68;40.55
56713;BME280;42589;45.536;9.032;2023-03-01T02:12:45;99973.75;;;12.67;40.95
56713;BME280;42589;45.536;9.032;2023-03-01T02:15:46;99951.63;;;12.32;41.36
56713;BME280;42589;45.536;9.032;2023-03-01T02:18:47;99968.69;;;12.55;41.75
56713;BME280;42589;45.536;9.032;2023-03-01T02:21:59;99963.13;;;12.75;41.29
56713;BME280;42589;45.536;9.032;2023-03-01T02:28:54;99951.72;;;12.65;40.85
56713;BME280;42589;45.536;9.032;2023-03-01T02:31:58;99951.22;;;12.53;41.35
56713;BME280;42589;45.536;9.032;2023-03-01T02:35:00;99948.41;;;12.63;40.93
56713;BME280;42589;45.536;9.032;2023-03-01T02:38:02;99937.66;;;12.38;41.00
56713;BME280;42589;45.536;9.032;2023-03-01T02:41:05;99926.03;;;12.55;40.72
56713;BME280;42589;45.536;9.032;2023-03-01T02:44:07;99927.59;;;12.66;40.52
56713;BME280;42589;45.536;9.032;2023-03-01T02:47:08;99924.22;;;12.56;40.40
56713;BME280;42589;45.536;9.032;2023-03-01T02:53:56;99918.41;;;12.61;41.61
56713;BME280;42589;45.536;9.032;2023-03-01T02:57:03;99924.56;;;12.61;40.78
56713;BME280;42589;45.536;9.032;2023-03-01T03:00:09;99928.47;;;12.32;41.49
56713;BME280;42589;45.536;9.032;2023-03-01T03:03:16;99912.16;;;11.75;42.01
56713;BME280;42589;45.536;9.032;2023-03-01T03:06:18;99903.91;;;12.21;41.47
56713;BME280;42589;45.536;9.032;2023-03-01T03:09:19;99901.47;;;11.93;42.09
56713;BME280;42589;45.536;9.032;2023-03-01T03:12:20;99907.72;;;11.84;42.03
56713;BME280;42589;45.536;9.032;2023-03-01T03:15:22;99922.34;;;12.06;41.34
56713;BME280;42589;45.536;9.032;2023-03-01T03:18:24;99888.25;;;11.83;41.96
56713;BME280;42589;45.536;9.032;2023-03-01T03:21:28;99879.22;;;12.02;41.25
56713;BME280;42589;45.536;9.032;2023-03-01T03:24:29;99900.91;;;11.63;42.55
56713;BME280;42589;45.536;9.032;2023-03-01T03:27:42;99910.41;;;11.40;43.08
56713;BME280;42589;45.536;9.032;2023-03-01T03:30:43;99883.59;;;11.85;41.99
56713;BME280;42589;45.536;9.032;2023-03-01T03:33:44;99903.28;;;11.67;42.40
56713;BME280;42589;45.536;9.032;2023-03-01T03:36:45;99912.34;;;11.82;41.83
56713;BME280;42589;45.536;9.032;2023-03-01T03:39:47;99878.81;;;11.19;42.84
56713;BME280;42589;45.536;9.032;2023-03-01T03:42:48;99894.22;;;11.51;43.46
56713;BME280;42589;45.536;9.032;2023-03-01T03:45:50;99898.00;;;11.75;42.79
56713;BME280;42589;45.536;9.032;2023-03-01T03:48:51;99903.38;;;11.57;42.12
56713;BME280;42589;45.536;9.032;2023-03-01T03:51:52;99904.84;;;11.51;42.46
56713;BME280;42589;45.536;9.032;2023-03-01T03:54:53;99893.84;;;11.28;42.73
56713;BME280;42589;45.536;9.032;2023-03-01T03:57:57;99892.94;;;11.37;42.52
56713;BME280;42589;45.536;9.032;2023-03-01T04:00:58;99895.59;;;11.63;42.55
56713;BME280;42589;45.536;9.032;2023-03-01T04:03:59;99899.66;;;11.50;42.25
56713;BME280;42589;45.536;9.032;2023-03-01T04:07:04;99890.84;;;11.49;42.91
56713;BME280;42589;45.536;9.032;2023-03-01T04:10:07;99891.16;;;11.46;42.42
56713;BME280;42589;45.536;9.032;2023-03-01T04:13:12;99886.63;;;11.38;42.67
56713;BME280;42589;45.536;9.032;2023-03-01T04:16:14;99890.53;;;11.52;42.12
56713;BME280;42589;45.536;9.032;2023-03-01T04:19:15;99883.38;;;11.09;43.06
56713;BME280;42589;45.536;9.032;2023-03-01T04:22:16;99884.81;;;11.39;43.07
56713;BME280;42589;45.536;9.032;2023-03-01T04:25:21;99881.94;;;11.14;42.96
56713;BME280;42589;45.536;9.032;2023-03-01T04:28:30;99870.34;;;10.98;43.44
56713;BME280;42589;45.536;9.032;2023-03-01T04:31:32;99884.59;;;11.14;43.19
56713;BME280;42589;45.536;9.032;2023-03-01T04:34:34;99870.78;;;10.93;42.61
56713;BME280;42589;45.536;9.032;2023-03-01T04:37:35;99865.84;;;10.80;42.66
56713;BME280;42589;45.536;9.032;2023-03-01T04:40:37;99869.88;;;10.84;43.37
56713;BME280;42589;45.536;9.032;2023-03-01T04:43:38;99868.81;;;10.77;43.51
56713;BME280;42589;45.536;9.032;2023-03-01T04:46:39;99865.22;;;10.68;44.52
56713;BME280;42589;45.536;9.032;2023-03-01T04:49:40;99879.63;;;10.76;43.77
56713;BME280;42589;45.536;9.032;2023-03-01T04:52:41;99861.91;;;10.66;44.17
56713;BME280;42589;45.536;9.032;2023-03-01T04:55:48;99876.50;;;10.80;44.13
56713;BME280;42589;45.536;9.032;2023-03-01T04:58:49;99875.44;;;10.73;43.50
56713;BME280;42589;45.536;9.032;2023-03-01T05:01:54;99860.09;;;10.67;43.48
56713;BME280;42589;45.536;9.032;2023-03-01T05:04:56;99863.63;;;10.40;44.40
56713;BME280;42589;45.536;9.032;2023-03-01T05:08:03;99871.88;;;10.82;44.47
56713;BME280;42589;45.536;9.032;2023-03-01T05:11:04;99877.41;;;10.71;43.79
56713;BME280;42589;45.536;9.032;2023-03-01T05:14:09;99881.03;;;11.06;43.15
56713;BME280;42589;45.536;9.032;2023-03-01T05:17:10;99871.94;;;10.73;43.52
56713;BME280;42589;45.536;9.032;2023-03-01T05:20:12;99875.63;;;10.62;43.42
56713;BME280;42589;45.536;9.032;2023-03-01T05:23:13;99859.47;;;10.55;43.68
56713;BME280;42589;45.536;9.032;2023-03-01T05:26:17;99867.38;;;10.65;43.65
56713;BME280;42589;45.536;9.032;2023-03-01T05:29:20;99868.66;;;10.61;43.50
56713;BME280;42589;45.536;9.032;2023-03-01T05:32:25;99873.56;;;10.38;44.70
56713;BME280;42589;45.536;9.032;2023-03-01T05:35:25;99868.34;;;10.18;44.20
56713;BME280;42589;45.536;9.032;2023-03-01T05:38:26;99877.50;;;10.24;44.97
56713;BME280;42589;45.536;9.032;2023-03-01T05:41:27;99859.38;;;10.19;43.78
56713;BME280;42589;45.536;9.032;2023-03-01T05:44:28;99877.66;;;10.32;44.40
56713;BME280;42589;45.536;9.032;2023-03-01T05:47:30;99860.34;;;10.46;43.77
56713;BME280;42589;45.536;9.032;2023-03-01T05:50:37;99857.69;;;10.28;43.44
56713;BME280;42589;45.536;9.032;2023-03-01T05:53:38;99853.91;;;10.31;43.49
56713;BME280;42589;45.536;9.032;2023-03-01T05:56:39;99879.84;;;10.37;43.94
56713;BME280;42589;45.536;9.032;2023-03-01T05:59:39;99853.75;;;10.32;43.53
56713;BME280;42589;45.536;9.032;2023-03-01T06:02:41;99877.19;;;10.37;44.24
56713;BME280;42589;45.536;9.032;2023-03-01T06:05:42;99866.06;;;10.23;44.66
56713;BME280;42589;45.536;9.032;2023-03-01T06:08:43;99860.66;;;10.15;43.67
56713;BME280;42589;45.536;9.032;2023-03-01T06:11:44;99866.13;;;10.41;43.73
56713;BME280;42589;45.536;9.032;2023-03-01T06:14:46;99882.72;;;10.53;43.60
56713;BME280;42589;45.536;9.032;2023-03-01T06:17:47;99870.84;;;10.20;43.75
56713;BME280;42589;45.536;9.032;2023-03-01T06:20:55;99870.25;;;10.54;44.46
56713;BME280;42589;45.536;9.032;2023-03-01T06:23:57;99895.25;;;10.61;44.32
56713;BME280;42589;45.536;9.032;2023-03-01T06:26:58;99877.31;;;10.45;44.00
56713;BME280;42589;45.536;9.032;2023-03-01T06:29:59;99893.06;;;10.56;43.50
56713;BME280;42589;45.536;9.032;2023-03-01T06:33:01;99876.22;;;10.38;44.56
56713;BME280;42589;45.536;9.032;2023-03-01T06:36:03;99868.72;;;10.51;43.57
56713;BME280;42589;45.536;9.032;2023-03-01T06:39:04;99896.31;;;10.86;42.89
56713;BME280;42589;45.536;9.032;2023-03-01T06:42:05;99873.06;;;10.70;42.95
56713;BME280;42589;45.536;9.032;2023-03-01T06:45:08;99904.38;;;11.12;43.91
56713;BME280;42589;45.536;9.032;2023-03-01T06:48:10;99872.44;;;10.94;42.80
56713;BME280;42589;45.536;9.032;2023-03-01T06:51:14;99892.81;;;11.21;42.78
56713;BME280;42589;45.536;9.032;2023-03-01T06:54:15;99880.13;;;11.41;42.07
56713;BME280;42589;45.536;9.032;2023-03-01T06:57:16;99903.03;;;11.78;41.82
56713;BME280;42589;45.536;9.032;2023-03-01T07:00:17;99900.03;;;12.07;41.96
56713;BME280;42589;45.536;9.032;2023-03-01T07:03:18;99885.63;;;11.39;41.97
56713;BME280;42589;45.536;9.032;2023-03-01T07:06:19;99894.63;;;11.21;42.84
56713;BME280;42589;45.536;9.032;2023-03-01T07:09:22;99893.41;;;11.59;41.94
56713;BME280;42589;45.536;9.032;2023-03-01T07:12:22;99899.44;;;11.61;42.04
56713;BME280;42589;45.536;9.032;2023-03-01T07:15:24;99907.13;;;11.72;41.97
56713;BME280;42589;45.536;9.032;2023-03-01T07:18:25;99904.34;;;11.74;42.34
56713;BME280;42589;45.536;9.032;2023-03-01T07:21:29;99896.78;;;11.87;43.03
56713;BME280;42589;45.536;9.032;2023-03-01T07:24:30;99910.81;;;11.97;41.88
56713;BME280;42589;45.536;9.032;2023-03-01T07:27:31;99894.03;;;12.47;41.08
56713;BME280;42589;45.536;9.032;2023-03-01T07:30:32;99896.03;;;12.03;42.31
56713;BME280;42589;45.536;9.032;2023-03-01T07:33:33;99899.31;;;13.14;40.39
56713;BME280;42589;45.536;9.032;2023-03-01T07:36:34;99904.66;;;13.31;40.16
56713;BME280;42589;45.536;9.032;2023-03-01T07:39:34;99916.69;;;13.43;39.60
56713;BME280;42589;45.536;9.032;2023-03-01T07:42:36;99915.66;;;13.44;39.26
56713;BME280;42589;45.536;9.032;2023-03-01T07:45:37;99888.47;;;13.08;40.92
56713;BME280;42589;45.536;9.032;2023-03-01T07:48:38;99914.78;;;13.76;39.03
56713;BME280;42589;45.536;9.032;2023-03-01T07:51:39;99897.66;;;13.54;39.20
56713;BME280;42589;45.536;9.032;2023-03-01T07:54:42;99909.66;;;13.34;39.14
56713;BME280;42589;45.536;9.032;2023-03-01T07:57:44;99908.00;;;13.49;39.34
56713;BME280;42589;45.536;9.032;2023-03-01T08:00:50;99882.00;;;13.27;39.23
56713;BME280;42589;45.536;9.032;2023-03-01T08:03:52;99902.63;;;13.65;39.22
56713;BME280;42589;45.536;9.032;2023-03-01T08:06:54;99890.59;;;13.69;39.18
56713;BME280;42589;45.536;9.032;2023-03-01T08:09:56;99879.72;;;12.57;40.02
56713;BME280;42589;45.536;9.032;2023-03-01T08:12:57;99894.09;;;12.96;40.10
56713;BME280;42589;45.536;9.032;2023-03-01T08:16:03;99878.69;;;13.97;39.21
56713;BME280;42589;45.536;9.032;2023-03-01T08:19:07;99868.97;;;14.04;37.90
56713;BME280;42589;45.536;9.032;2023-03-01T08:22:08;99895.84;;;13.30;37.49
56713;BME280;42589;45.536;9.032;2023-03-01T08:25:09;99885.94;;;13.72;36.14
56713;BME280;42589;45.536;9.032;2023-03-01T08:28:10;99898.03;;;14.46;35.44
56713;BME280;42589;45.536;9.032;2023-03-01T08:34:18;99875.69;;;15.16;34.09
56713;BME280;42589;45.536;9.032;2023-03-01T08:37:19;99871.03;;;12.54;37.92
56713;BME280;42589;45.536;9.032;2023-03-01T08:40:20;99863.06;;;13.69;35.24
56713;BME280;42589;45.536;9.032;2023-03-01T08:43:22;99879.25;;;13.67;34.91
56713;BME280;42589;45.536;9.032;2023-03-01T08:46:30;99856.75;;;14.09;34.03
56713;BME280;42589;45.536;9.032;2023-03-01T08:49:31;99868.72;;;13.74;35.13
56713;BME280;42589;45.536;9.032;2023-03-01T08:52:32;99871.59;;;13.56;34.06
56713;BME280;42589;45.536;9.032;2023-03-01T08:55:34;99866.63;;;13.29;35.12
56713;BME280;42589;45.536;9.032;2023-03-01T08:58:36;99862.03;;;14.17;33.82
56713;BME280;42589;45.536;9.032;2023-03-01T09:01:38;99841.81;;;13.76;34.62
56713;BME280;42589;45.536;9.032;2023-03-01T09:04:40;99844.75;;;13.41;35.19
56713;BME280;42589;45.536;9.032;2023-03-01T09:07:41;99853.44;;;13.11;34.98
56713;BME280;42589;45.536;9.032;2023-03-01T09:10:45;99859.50;;;13.85;34.71
56713;BME280;42589;45.536;9.032;2023-03-01T09:13:47;99848.88;;;13.68;35.22
56713;BME280;42589;45.536;9.032;2023-03-01T09:16:48;99844.16;;;14.80;33.26
56713;BME280;42589;45.536;9.032;2023-03-01T09:19:51;99851.09;;;14.90;32.46
56713;BME280;42589;45.536;9.032;2023-03-01T09:22:53;99858.09;;;14.36;33.48
56713;BME280;42589;45.536;9.032;2023-03-01T09:25:54;99850.00;;;14.22;33.52
56713;BME280;42589;45.536;9.032;2023-03-01T09:28:56;99842.19;;;15.35;32.16
56713;BME280;42589;45.536;9.032;2023-03-01T09:31:56;99843.56;;;15.31;31.92
56713;BME280;42589;45.536;9.032;2023-03-01T09:34:57;99819.16;;;15.11;31.55
56713;BME280;42589;45.536;9.032;2023-03-01T09:38:04;99830.59;;;13.16;35.30
56713;BME280;42589;45.536;9.032;2023-03-01T09:47:33;99802.84;;;15.36;32.91
56713;BME280;42589;45.536;9.032;2023-03-01T09:50:39;99788.81;;;14.27;34.35
56713;BME280;42589;45.536;9.032;2023-03-01T09:53:42;99794.06;;;12.76;35.64
56713;BME280;42589;45.536;9.032;2023-03-01T09:56:46;99758.69;;;12.17;36.90
56713;BME280;42589;45.536;9.032;2023-03-01T10:03:13;99779.72;;;13.01;36.58
56713;BME280;42589;45.536;9.032;2023-03-01T10:06:21;99765.13;;;13.53;35.06
56713;BME280;42589;45.536;9.032;2023-03-01T10:09:34;99777.28;;;14.26;33.80
56713;BME280;42589;45.536;9.032;2023-03-01T10:12:37;99777.00;;;13.90;35.15
56713;BME280;42589;45.536;9.032;2023-03-01T10:15:49;99773.56;;;12.60;36.73
56713;BME280;42589;45.536;9.032;2023-03-01T10:18:59;99768.66;;;12.06;36.15
56713;BME280;42589;45.536;9.032;2023-03-01T10:22:21;99758.13;;;13.44;34.43
56713;BME280;42589;45.536;9.032;2023-03-01T10:28:48;99734.94;;;14.15;34.85
56713;BME280;42589;45.536;9.032;2023-03-01T10:31:52;99712.97;;;14.89;32.92
56713;BME280;42589;45.536;9.032;2023-03-01T10:34:53;99704.13;;;13.26;35.53
56713;BME280;42589;45.536;9.032;2023-03-01T10:41:04;99704.56;;;13.45;35.53
56713;BME280;42589;45.536;9.032;2023-03-01T10:44:38;99712.06;;;14.35;34.71
56713;BME280;42589;45.536;9.032;2023-03-01T10:47:39;99715.50;;;13.67;35.04
56713;BME280;42589;45.536;9.032;2023-03-01T10:50:45;99695.94;;;13.35;35.94
56713;BME280;42589;45.536;9.032;2023-03-01T10:53:50;99704.91;;;12.78;36.62
56713;BME280;42589;45.536;9.032;2023-03-01T10:57:03;99691.88;;;14.71;34.22
56713;BME280;42589;45.536;9.032;2023-03-01T11:00:28;99682.59;;;15.70;32.64
56713;BME280;42589;45.536;9.032;2023-03-01T11:03:31;99688.31;;;14.78;34.39
56713;BME280;42589;45.536;9.032;2023-03-01T11:06:37;99680.81;;;15.77;33.14
56713;BME280;42589;45.536;9.032;2023-03-01T11:09:39;99682.25;;;16.16;31.94
56713;BME280;42589;45.536;9.032;2023-03-01T11:12:40;99677.06;;;15.27;33.09
56713;BME280;42589;45.536;9.032;2023-03-01T11:15:41;99664.78;;;14.74;33.51
56713;BME280;42589;45.536;9.032;2023-03-01T11:18:42;99633.75;;;15.39;33.32
56713;BME280;42589;45.536;9.032;2023-03-01T11:22:14;99644.66;;;14.78;33.96
56713;BME280;42589;45.536;9.032;2023-03-01T11:25:17;99621.91;;;13.83;35.52
56713;BME280;42589;45.536;9.032;2023-03-01T11:28:20;99618.28;;;15.04;33.06
56713;BME280;42589;45.536;9.032;2023-03-01T11:31:23;99610.25;;;14.90;34.70
56713;BME280;42589;45.536;9.032;2023-03-01T11:34:38;99596.00;;;14.45;34.62
56713;BME280;42589;45.536;9.032;2023-03-01T11:38:26;99602.34;;;13.60;35.08
56713;BME280;42589;45.536;9.032;2023-03-01T11:44:23;99583.84;;;15.52;32.40
56713;BME280;42589;45.536;9.032;2023-03-01T11:50:47;99573.81;;;17.23;30.90
56713;BME280;42589;45.536;9.032;2023-03-01T12:27:09;99536.03;;;16.20;32.47
56713;BME280;42589;45.536;9.032;2023-03-01T12:30:25;99527.50;;;16.10;32.56
56713;BME280;42589;45.536;9.032;2023-03-01T12:34:01;99525.97;;;17.67;30.25
56713;BME280;42589;45.536;9.032;2023-03-01T12:37:23;99526.19;;;18.31;30.21
56713;BME280;42589;45.536;9.032;2023-03-01T12:44:00;99526.63;;;18.02;29.96
56713;BME280;42589;45.536;9.032;2023-03-01T12:50:40;99513.72;;;16.83;31.24
56713;BME280;42589;45.536;9.032;2023-03-01T12:53:46;99495.19;;;16.94;31.15
56713;BME280;42589;45.536;9.032;2023-03-01T12:56:48;99500.31;;;18.37;29.67
56713;BME280;42589;45.536;9.032;2023-03-01T13:00:25;99491.38;;;19.08;28.81
56713;BME280;42589;45.536;9.032;2023-03-01T13:09:53;99520.41;;;19.44;27.56
56713;BME280;42589;45.536;9.032;2023-03-01T13:15:56;99527.31;;;19.34;28.60
56713;BME280;42589;45.536;9.032;2023-03-01T13:19:32;99534.47;;;19.85;28.83
56713;BME280;42589;45.536;9.032;2023-03-01T13:22:33;99506.44;;;19.22;29.62
56713;BME280;42589;45.536;9.032;2023-03-01T13:25:37;99509.16;;;19.54;28.80
56713;BME280;42589;45.536;9.032;2023-03-01T13:28:57;99534.88;;;19.12;29.47
56713;BME280;42589;45.536;9.032;2023-03-01T13:31:57;99537.69;;;19.30;29.59
56713;BME280;42589;45.536;9.032;2023-03-01T13:35:40;99547.63;;;18.85;29.98
56713;BME280;42589;45.536;9.032;2023-03-01T13:39:39;99540.44;;;19.17;29.43
56713;BME280;42589;45.536;9.032;2023-03-01T13:42:37;99538.03;;;20.04;28.48
56713;BME280;42589;45.536;9.032;2023-03-01T13:45:40;99535.63;;;19.32;29.35
56713;BME280;42589;45.536;9.032;2023-03-01T13:48:44;99542.94;;;19.12;29.15
56713;BME280;42589;45.536;9.032;2023-03-01T13:51:46;99538.31;;;18.74;29.80
56713;BME280;42589;45.536;9.032;2023-03-01T13:54:48;99552.66;;;18.41;30.37
56713;BME280;42589;45.536;9.032;2023-03-01T13:58:18;99551.59;;;18.62;30.49
56713;BME280;42589;45.536;9.032;2023-03-01T14:01:29;99557.53;;;18.97;30.38
56713;BME280;42589;45.536;9.032;2023-03-01T14:04:33;99551.75;;;18.81;30.47
56713;BME280;42589;45.536;9.032;2023-03-01T14:07:36;99571.19;;;19.41;29.36
56713;BME280;42589;45.536;9.032;2023-03-01T14:20:24;99566.69;;;18.83;30.28
56713;BME280;42589;45.536;9.032;2023-03-01T14:23:26;99561.53;;;18.55;30.74
56713;BME280;42589;45.536;9.032;2023-03-01T14:26:27;99573.78;;;17.91;31.06
56713;BME280;42589;45.536;9.032;2023-03-01T14:29:37;99565.72;;;18.18;31.59
56713;BME280;42589;45.536;9.032;2023-03-01T14:32:38;99578.13;;;18.25;30.89
56713;BME280;42589;45.536;9.032;2023-03-01T14:35:40;99581.41;;;18.61;30.45
56713;BME280;42589;45.536;9.032;2023-03-01T14:38:43;99562.59;;;18.47;30.70
56713;BME280;42589;45.536;9.032;2023-03-01T14:41:45;99583.66;;;18.97;30.04
56713;BME280;42589;45.536;9.032;2023-03-01T14:44:49;99566.16;;;18.15;31.10
56713;BME280;42589;45.536;9.032;2023-03-01T14:47:51;99577.69;;;18.68;30.23
56713;BME280;42589;45.536;9.032;2023-03-01T14:50:51;99583.50;;;18.45;30.64
56713;BME280;42589;45.536;9.032;2023-03-01T14:53:54;99548.69;;;18.57;29.71
56713;BME280;42589;45.536;9.032;2023-03-01T14:56:59;99583.06;;;18.55;30.27
56713;BME280;42589;45.536;9.032;2023-03-01T15:00:03;99578.53;;;18.29;30.34
56713;BME280;42589;45.536;9.032;2023-03-01T15:03:17;99575.41;;;18.52;31.16
56713;BME280;42589;45.536;9.032;2023-03-01T15:06:22;99561.59;;;18.02;31.56
56713;BME280;42589;45.536;9.032;2023-03-01T15:09:24;99568.63;;;17.90;31.93
56713;BME280;42589;45.536;9.032;2023-03-01T15:18:30;99562.41;;;17.82;32.05
56713;BME280;42589;45.536;9.032;2023-03-01T15:21:38;99567.56;;;18.17;31.83
56713;BME280;42589;45.536;9.032;2023-03-01T15:24:40;99568.50;;;17.56;32.76
56713;BME280;42589;45.536;9.032;2023-03-01T15:27:48;99561.97;;;17.79;32.65
56713;BME280;42589;45.536;9.032;2023-03-01T15:31:17;99576.69;;;18.09;32.15
56713;BME280;42589;45.536;9.032;2023-03-01T15:34:36;99576.47;;;17.84;33.00
56713;BME280;42589;45.536;9.032;2023-03-01T15:37:39;99584.53;;;17.98;32.87
56713;BME280;42589;45.536;9.032;2023-03-01T15:40:49;99588.63;;;17.74;32.57
56713;BME280;42589;45.536;9.032;2023-03-01T15:43:51;99569.38;;;17.09;32.79
56713;BME280;42589;45.536;9.032;2023-03-01T15:46:54;99589.78;;;17.45;32.82
56713;BME280;42589;45.536;9.032;2023-03-01T15:49:56;99575.66;;;17.23;33.16
56713;BME280;42589;45.536;9.032;2023-03-01T15:53:00;99579.31;;;17.08;33.53
56713;BME280;42589;45.536;9.032;2023-03-01T15:56:01;99593.72;;;17.49;32.88
56713;BME280;42589;45.536;9.032;2023-03-01T15:59:03;99569.56;;;17.62;32.95
56713;BME280;42589;45.536;9.032;2023-03-01T16:02:09;99590.78;;;17.37;32.71
56713;BME280;42589;45.536;9.032;2023-03-01T16:05:27;99584.13;;;16.22;34.06
56713;BME280;42589;45.536;9.032;2023-03-01T16:08:28;99589.16;;;15.31;35.79
56713;BME280;42589;45.536;9.032;2023-03-01T16:11:29;99610.44;;;15.90;34.81
56713;BME280;42589;45.536;9.032;2023-03-01T16:14:33;99590.03;;;15.02;35.82
56713;BME280;42589;45.536;9.032;2023-03-01T16:17:34;99609.09;;;16.51;34.24
56713;BME280;42589;45.536;9.032;2023-03-01T16:20:36;99617.97;;;16.79;34.18
56713;BME280;42589;45.536;9.032;2023-03-01T16:23:37;99605.84;;;16.90;33.32
56713;BME280;42589;45.536;9.032;2023-03-01T16:26:43;99623.63;;;16.91;34.08
56713;BME280;42589;45.536;9.032;2023-03-01T16:29:45;99629.84;;;16.91;33.74
56713;BME280;42589;45.536;9.032;2023-03-01T16:32:49;99617.22;;;16.92;34.22
56713;BME280;42589;45.536;9.032;2023-03-01T16:35:50;99642.69;;;17.03;34.21
56713;BME280;42589;45.536;9.032;2023-03-01T16:38:51;99636.56;;;17.15;33.68
56713;BME280;42589;45.536;9.032;2023-03-01T16:41:52;99621.88;;;17.11;33.70
56713;BME280;42589;45.536;9.032;2023-03-01T16:44:56;99622.69;;;17.12;33.43
56713;BME280;42589;45.536;9.032;2023-03-01T16:47:58;99624.28;;;17.00;33.88
56713;BME280;42589;45.536;9.032;2023-03-01T16:51:00;99631.97;;;17.09;34.00
56713;BME280;42589;45.536;9.032;2023-03-01T16:54:01;99644.34;;;16.97;34.58
56713;BME280;42589;45.536;9.032;2023-03-01T16:57:02;99652.16;;;16.99;34.15
56713;BME280;42589;45.536;9.032;2023-03-01T17:00:07;99660.28;;;16.77;34.77
56713;BME280;42589;45.536;9.032;2023-03-01T17:03:09;99637.63;;;16.58;34.93
56713;BME280;42589;45.536;9.032;2023-03-01T17:06:12;99641.53;;;16.56;34.34
56713;BME280;42589;45.536;9.032;2023-03-01T17:09:14;99635.75;;;16.80;34.15
56713;BME280;42589;45.536;9.032;2023-03-01T17:12:18;99662.16;;;16.55;35.56
56713;BME280;42589;45.536;9.032;2023-03-01T17:15:19;99675.81;;;16.60;34.72
56713;BME280;42589;45.536;9.032;2023-03-01T17:18:21;99698.22;;;16.74;35.63
56713;BME280;42589;45.536;9.032;2023-03-01T17:21:22;99687.59;;;16.16;35.41
56713;BME280;42589;45.536;9.032;2023-03-01T17:24:23;99692.22;;;16.44;35.70
56713;BME280;42589;45.536;9.032;2023-03-01T17:27:27;99693.25;;;16.21;37.17
56713;BME280;42589;45.536;9.032;2023-03-01T17:30:28;99709.81;;;16.10;38.03
56713;BME280;42589;45.536;9.032;2023-03-01T17:33:29;99701.41;;;16.13;37.93
56713;BME280;42589;45.536;9.032;2023-03-01T17:36:33;99706.31;;;15.59;38.57
56713;BME280;42589;45.536;9.032;2023-03-01T17:39:43;99703.47;;;15.16;40.08
56713;BME280;42589;45.536;9.032;2023-03-01T17:42:44;99713.75;;;15.42;39.86
56713;BME280;42589;45.536;9.032;2023-03-01T17:45:46;99707.28;;;15.51;39.57
56713;BME280;42589;45.536;9.032;2023-03-01T17:48:47;99740.06;;;15.38;39.92
56713;BME280;42589;45.536;9.032;2023-03-01T17:51:49;99725.34;;;15.04;40.70
56713;BME280;42589;45.536;9.032;2023-03-01T17:54:50;99750.13;;;15.36;40.42